createdAt,value
2022-11-12T00:01:51.531Z,100.00
2022-11-12T00:05:11.683Z,100.00
2022-11-12T00:08:31.544Z,100.00
2022-11-12T00:11:51.477Z,100.00
2022-11-12T00:15:11.318Z,100.00
2022-11-12T00:18:31.524Z,100.00
2022-11-12T00:21:51.516Z,100.00
2022-11-12T00:25:11.704Z,100.00
2022-11-12T00:28:37.236Z,100.00
2022-11-12T00:31:58.490Z,100.00
2022-11-12T00:35:18.378Z,100.00
2022-11-12T00:38:38.245Z,100.00
2022-11-12T00:41:58.000Z,100.00
2022-11-12T00:45:18.370Z,100.00
2022-11-12T00:48:38.368Z,100.00
2022-11-12T00:51:58.534Z,100.00
2022-11-12T00:55:18.369Z,100.00
2022-11-12T00:58:38.197Z,100.00
2022-11-12T01:01:57.978Z,100.00
2022-11-12T01:05:18.371Z,100.00
2022-11-12T01:08:38.252Z,100.00
2022-11-12T01:11:58.254Z,100.00
2022-11-12T01:15:18.156Z,100.00
2022-11-12T01:18:38.276Z,100.00
2022-11-12T01:21:58.568Z,100.00
2022-11-12T01:25:18.535Z,100.00
2022-11-12T01:28:38.394Z,100.00
2022-11-12T01:31:58.383Z,100.00
2022-11-12T01:35:18.173Z,100.00
2022-11-12T01:38:38.520Z,100.00
2022-11-12T01:41:58.487Z,100.00
2022-11-12T01:45:18.770Z,100.00
2022-11-12T01:48:40.220Z,100.00
2022-11-12T01:52:03.031Z,100.00
2022-11-12T01:55:23.349Z,100.00
2022-11-12T01:58:43.548Z,100.00
2022-11-12T02:02:03.449Z,100.00
2022-11-12T02:05:23.651Z,100.00
2022-11-12T02:08:43.828Z,100.00
2022-11-12T02:12:04.034Z,100.00
2022-11-12T02:15:24.155Z,100.00
2022-11-12T02:18:44.153Z,100.00
2022-11-12T02:22:04.050Z,100.00
2022-11-12T02:25:23.924Z,100.00
2022-11-12T02:28:43.638Z,100.00
2022-11-12T02:32:03.500Z,100.00
2022-11-12T02:35:23.413Z,100.00
2022-11-12T02:38:43.504Z,100.00
2022-11-12T02:42:03.298Z,100.00
2022-11-12T02:45:23.426Z,100.00
2022-11-12T02:48:44.062Z,100.00
2022-11-12T02:52:05.089Z,100.00
2022-11-12T02:55:25.113Z,100.00
2022-11-12T02:58:44.896Z,100.00
2022-11-12T03:02:04.658Z,100.00
2022-11-12T03:05:24.913Z,100.00
2022-11-12T03:08:44.774Z,100.00
2022-11-12T03:12:05.101Z,100.00
2022-11-12T03:15:25.086Z,100.00
2022-11-12T03:18:44.768Z,100.00
2022-11-12T03:22:04.704Z,100.00
2022-11-12T03:25:25.375Z,100.00
2022-11-12T03:28:45.324Z,100.00
2022-11-12T03:32:05.324Z,100.00
2022-11-12T03:35:26.782Z,100.00
2022-11-12T03:38:46.947Z,100.00
2022-11-12T03:42:06.833Z,100.00
2022-11-12T03:45:27.478Z,100.00
2022-11-12T03:48:50.434Z,100.00
2022-11-12T03:52:10.616Z,100.00
2022-11-12T03:55:30.547Z,100.00
2022-11-12T03:58:50.554Z,100.00
2022-11-12T04:02:14.485Z,100.00
2022-11-12T04:05:53.424Z,100.00
2022-11-12T04:09:13.571Z,100.00
2022-11-12T04:12:52.361Z,100.00
2022-11-12T04:16:32.907Z,100.00
2022-11-12T04:20:11.737Z,100.00
2022-11-12T04:23:31.831Z,100.00
2022-11-12T04:26:51.751Z,100.00
2022-11-12T04:30:19.429Z,100.00
2022-11-12T04:33:39.505Z,100.00
2022-11-12T04:36:59.440Z,100.00
2022-11-12T04:40:38.492Z,100.00
2022-11-12T04:44:17.374Z,100.00
2022-11-12T04:47:38.678Z,100.00
2022-11-12T04:51:03.060Z,100.00
2022-11-12T04:54:22.963Z,100.00
2022-11-12T04:57:43.337Z,100.00
2022-11-12T05:01:03.886Z,100.00
2022-11-12T05:04:27.608Z,100.00
2022-11-12T05:07:47.742Z,100.00
2022-11-12T05:11:12.659Z,100.00
2022-11-12T05:14:33.168Z,100.00
2022-11-12T05:17:53.171Z,100.00
2022-11-12T05:21:31.780Z,100.00
2022-11-12T05:24:52.122Z,100.00
2022-11-12T05:28:11.892Z,100.00
2022-11-12T05:31:34.004Z,100.00
2022-11-12T05:34:54.109Z,100.00
2022-11-12T05:38:14.096Z,100.00
2022-11-12T05:41:51.362Z,100.00
2022-11-12T05:45:14.234Z,100.00
2022-11-12T05:48:34.439Z,100.00
2022-11-12T05:51:54.285Z,100.00
2022-11-12T05:55:14.089Z,100.00
2022-11-12T05:58:34.043Z,100.00
2022-11-12T06:01:54.936Z,100.00
2022-11-12T06:05:15.036Z,100.00
2022-11-12T06:08:34.843Z,100.00
2022-11-12T06:11:54.773Z,100.00
2022-11-12T06:15:14.621Z,100.00
2022-11-12T06:18:34.821Z,100.00
2022-11-12T06:21:54.875Z,100.00
2022-11-12T06:25:15.435Z,100.00
2022-11-12T06:28:35.473Z,100.00
2022-11-12T06:31:55.913Z,100.00
2022-11-12T06:35:16.120Z,100.00
2022-11-12T06:38:36.740Z,100.00
2022-11-12T06:41:56.803Z,100.00
2022-11-12T06:45:16.578Z,100.00
2022-11-12T06:48:36.383Z,100.00
2022-11-12T06:51:56.412Z,100.00
2022-11-12T06:55:16.447Z,100.00
2022-11-12T06:58:36.867Z,100.00
2022-11-12T07:01:57.054Z,100.00
2022-11-12T07:05:17.352Z,100.00
2022-11-12T07:08:37.549Z,100.00
2022-11-12T07:11:58.496Z,100.00
2022-11-12T07:15:19.058Z,100.00
2022-11-12T07:18:39.056Z,100.00
2022-11-12T07:21:59.330Z,100.00
2022-11-12T07:25:19.648Z,100.00
2022-11-12T07:28:39.477Z,100.00
2022-11-12T07:31:59.628Z,100.00
2022-11-12T07:35:19.578Z,100.00
2022-11-12T07:38:39.979Z,100.00
2022-11-12T07:41:59.919Z,100.00
2022-11-12T07:45:19.837Z,100.00
2022-11-12T07:48:39.849Z,100.00
2022-11-12T07:52:00.135Z,100.00
2022-11-12T07:55:20.511Z,100.00
2022-11-12T07:58:40.428Z,100.00
2022-11-12T08:02:00.344Z,100.00
2022-11-12T08:05:21.475Z,100.00
2022-11-12T08:08:41.922Z,100.00
2022-11-12T08:12:02.363Z,100.00
2022-11-12T08:15:22.085Z,100.00
2022-11-12T08:18:42.376Z,100.00
2022-11-12T08:22:02.285Z,100.00
2022-11-12T08:25:22.504Z,100.00
2022-11-12T08:28:42.598Z,100.00
2022-11-12T08:32:02.415Z,100.00
2022-11-12T08:35:22.276Z,100.00
2022-11-12T08:38:42.432Z,100.00
2022-11-12T08:42:02.626Z,100.00
2022-11-12T08:45:22.577Z,100.00
2022-11-12T08:48:42.408Z,100.00
2022-11-12T08:52:02.391Z,100.00
2022-11-12T08:55:22.541Z,100.00
2022-11-12T08:58:42.669Z,100.00
2022-11-12T09:02:05.153Z,100.00
2022-11-12T09:05:25.013Z,100.00
2022-11-12T09:08:44.768Z,100.00
2022-11-12T09:12:13.638Z,100.00
2022-11-12T09:15:38.415Z,100.00
2022-11-12T09:18:59.023Z,100.00
2022-11-12T09:22:18.995Z,100.00
2022-11-12T09:25:39.199Z,100.00
2022-11-12T09:28:59.092Z,100.00
2022-11-12T09:32:19.208Z,100.00
2022-11-12T09:35:39.301Z,100.00
2022-11-12T09:38:59.269Z,100.00
2022-11-12T09:42:20.339Z,100.00
2022-11-12T09:45:41.834Z,100.00
2022-11-12T09:49:20.103Z,100.00
2022-11-12T09:52:40.374Z,100.00
2022-11-12T09:56:00.562Z,100.00
2022-11-12T09:59:21.197Z,100.00
2022-11-12T10:03:03.489Z,100.00
2022-11-12T10:06:24.711Z,100.00
2022-11-12T10:09:48.282Z,100.00
2022-11-12T10:13:08.411Z,100.00
2022-11-12T10:16:44.782Z,100.00
2022-11-12T10:20:24.226Z,100.00
2022-11-12T10:23:47.829Z,100.00
2022-11-12T10:27:17.820Z,100.00
2022-11-12T10:30:37.768Z,100.00
2022-11-12T10:34:05.691Z,100.00
2022-11-12T10:37:40.771Z,100.00
2022-11-12T10:41:00.978Z,100.00
2022-11-12T10:44:21.744Z,100.00
2022-11-12T10:47:44.556Z,100.00
2022-11-12T10:51:05.116Z,100.00
2022-11-12T10:54:36.748Z,100.00
2022-11-12T10:58:11.962Z,100.00
2022-11-12T11:01:35.534Z,100.00
2022-11-12T11:04:56.371Z,100.00
2022-11-12T11:08:16.342Z,100.00
2022-11-12T11:11:36.097Z,100.00
2022-11-12T11:15:11.580Z,100.00
2022-11-12T11:18:35.791Z,100.00
2022-11-12T11:22:05.027Z,100.00
2022-11-12T11:25:28.521Z,100.00
2022-11-12T11:29:02.844Z,100.00
2022-11-12T11:32:34.583Z,100.00
2022-11-12T11:35:57.178Z,100.00
2022-11-12T11:39:46.694Z,100.00
2022-11-12T11:43:13.067Z,100.00
2022-11-12T11:46:32.892Z,100.00
2022-11-12T11:49:52.812Z,100.00
2022-11-12T11:53:20.256Z,100.00
2022-11-12T11:56:44.215Z,100.00
2022-11-12T12:00:04.645Z,100.00
2022-11-12T12:03:36.374Z,100.00
2022-11-12T12:07:02.791Z,100.00
2022-11-12T12:11:07.010Z,100.00
2022-11-12T12:14:27.762Z,100.00
2022-11-12T12:17:50.687Z,100.00
2022-11-12T12:21:15.829Z,100.00
2022-11-12T12:24:37.650Z,100.00
2022-11-12T12:28:02.425Z,100.00
2022-11-12T12:31:29.915Z,100.00
2022-11-12T12:34:52.088Z,100.00
2022-11-12T12:38:32.016Z,100.00
2022-11-12T12:42:00.724Z,100.00
2022-11-12T12:45:29.613Z,100.00
2022-11-12T12:48:54.248Z,100.00
2022-11-12T12:52:15.325Z,100.00
2022-11-12T12:55:38.221Z,100.00
2022-11-12T12:58:58.288Z,100.00
2022-11-12T13:02:22.636Z,100.00
2022-11-12T13:05:42.931Z,100.00
2022-11-12T13:09:06.171Z,100.00
2022-11-12T13:12:49.525Z,100.00
2022-11-12T13:16:09.667Z,100.00
2022-11-12T13:19:30.610Z,100.00
2022-11-12T13:22:51.672Z,100.00
2022-11-12T13:26:30.643Z,100.00
2022-11-12T13:29:51.016Z,100.00
2022-11-12T13:33:18.955Z,100.00
2022-11-12T13:36:38.785Z,100.00
2022-11-12T13:40:02.396Z,100.00
2022-11-12T13:43:31.336Z,100.00
2022-11-12T13:46:51.767Z,100.00
2022-11-12T13:50:19.514Z,100.00
2022-11-12T13:53:40.378Z,100.00
2022-11-12T13:57:16.735Z,100.00
2022-11-12T14:00:36.540Z,100.00
2022-11-12T14:03:57.044Z,100.00
2022-11-12T14:07:32.423Z,97.53
2022-11-12T14:11:11.024Z,100.00
2022-11-12T14:14:40.141Z,100.00
2022-11-12T14:18:18.853Z,100.00
2022-11-12T14:21:38.898Z,100.00
2022-11-12T14:24:59.853Z,100.00
2022-11-12T14:28:30.280Z,98.94
2022-11-12T14:31:59.581Z,98.76
2022-11-12T14:35:20.788Z,98.20
2022-11-12T14:38:42.212Z,97.01
2022-11-12T14:42:02.920Z,97.05
2022-11-12T14:45:23.503Z,96.62
2022-11-12T14:48:47.990Z,96.85
2022-11-12T14:52:08.527Z,97.62
2022-11-12T14:55:33.011Z,98.18
2022-11-12T14:58:53.016Z,98.96
2022-11-12T15:02:31.604Z,96.65
2022-11-12T15:05:54.089Z,97.35
2022-11-12T15:09:21.002Z,98.85
2022-11-12T15:12:41.605Z,100.00
2022-11-12T15:16:04.688Z,100.00
2022-11-12T15:19:27.947Z,100.00
2022-11-12T15:22:51.747Z,100.00
2022-11-12T15:26:14.317Z,100.00
2022-11-12T15:29:34.969Z,100.00
2022-11-12T15:33:08.176Z,100.00
2022-11-12T15:36:28.014Z,100.00
2022-11-12T15:39:48.591Z,100.00
2022-11-12T15:43:22.392Z,100.00
2022-11-12T15:46:42.285Z,100.00
2022-11-12T15:50:02.142Z,100.00
2022-11-12T15:53:22.819Z,100.00
2022-11-12T15:56:43.369Z,100.00
2022-11-12T16:00:08.485Z,100.00
2022-11-12T16:03:29.185Z,100.00
2022-11-12T16:06:50.304Z,100.00
2022-11-12T16:10:14.413Z,100.00
2022-11-12T16:13:35.027Z,100.00
2022-11-12T16:16:55.570Z,100.00
2022-11-12T16:20:17.049Z,100.00
2022-11-12T16:23:37.460Z,100.00
2022-11-12T16:26:57.669Z,100.00
2022-11-12T16:30:19.117Z,100.00
2022-11-12T16:33:39.223Z,100.00
2022-11-12T16:36:59.073Z,100.00
2022-11-12T16:40:20.007Z,100.00
2022-11-12T16:43:40.440Z,100.00
2022-11-12T16:47:01.918Z,100.00
2022-11-12T16:50:23.179Z,100.00
2022-11-12T16:53:43.560Z,100.00
2022-11-12T16:57:03.849Z,100.00
2022-11-12T17:00:24.128Z,100.00
2022-11-12T17:03:43.886Z,100.00
2022-11-12T17:07:05.167Z,100.00
2022-11-12T17:10:25.776Z,100.00
2022-11-12T17:13:45.936Z,100.00
2022-11-12T17:17:05.832Z,100.00
2022-11-12T17:20:25.906Z,100.00
2022-11-12T17:23:45.975Z,100.00
2022-11-12T17:27:05.776Z,100.00
2022-11-12T17:30:25.778Z,100.00
2022-11-12T17:33:47.298Z,100.00
2022-11-12T17:37:07.825Z,100.00
2022-11-12T17:40:27.900Z,100.00
2022-11-12T17:43:47.871Z,100.00
2022-11-12T17:47:07.772Z,100.00
2022-11-12T17:50:27.776Z,100.00
2022-11-12T17:53:48.168Z,100.00
2022-11-12T17:57:08.273Z,100.00
2022-11-12T18:00:33.828Z,100.00
2022-11-12T18:03:54.684Z,100.00
2022-11-12T18:07:14.945Z,100.00
2022-11-12T18:10:35.991Z,100.00
2022-11-12T18:13:56.586Z,100.00
2022-11-12T18:17:16.628Z,100.00
2022-11-12T18:20:38.052Z,100.00
2022-11-12T18:23:58.031Z,100.00
2022-11-12T18:27:17.751Z,100.00
2022-11-12T18:30:37.663Z,100.00
2022-11-12T18:33:57.743Z,100.00
2022-11-12T18:37:17.675Z,100.00
2022-11-12T18:40:38.144Z,100.00
2022-11-12T18:43:59.160Z,100.00
2022-11-12T18:47:19.379Z,100.00
2022-11-12T18:50:39.209Z,100.00
2022-11-12T18:53:59.114Z,100.00
2022-11-12T18:57:19.126Z,100.00
2022-11-12T19:00:38.893Z,100.00
2022-11-12T19:03:58.540Z,100.00
2022-11-12T19:07:18.734Z,100.00
2022-11-12T19:10:39.137Z,100.00
2022-11-12T19:13:59.396Z,100.00
2022-11-12T19:17:20.136Z,100.00
2022-11-12T19:21:16.199Z,100.00
2022-11-12T19:24:36.410Z,100.00
2022-11-12T19:27:56.246Z,100.00
2022-11-12T19:31:18.123Z,100.00
2022-11-12T19:34:38.797Z,100.00
2022-11-12T19:37:59.305Z,100.00
2022-11-12T19:41:20.189Z,100.00
2022-11-12T19:44:40.289Z,100.00
2022-11-12T19:48:01.259Z,100.00
2022-11-12T19:51:21.573Z,100.00
2022-11-12T19:54:41.407Z,100.00
2022-11-12T19:58:01.382Z,100.00
2022-11-12T20:01:21.720Z,100.00
2022-11-12T20:04:41.568Z,100.00
2022-11-12T20:08:01.289Z,100.00
2022-11-12T20:11:21.352Z,100.00
2022-11-12T20:14:41.839Z,100.00
2022-11-12T20:18:02.353Z,100.00
2022-11-12T20:21:26.409Z,100.00
2022-11-12T20:24:46.943Z,100.00
2022-11-12T20:28:07.395Z,100.00
2022-11-12T20:31:27.549Z,100.00
2022-11-12T20:34:47.400Z,100.00
2022-11-12T20:38:07.387Z,100.00
2022-11-12T20:41:27.326Z,100.00
2022-11-12T20:44:47.376Z,100.00
2022-11-12T20:48:07.919Z,100.00
2022-11-12T20:51:32.925Z,100.00
2022-11-12T20:54:53.558Z,100.00
2022-11-12T20:58:13.611Z,100.00
2022-11-12T21:01:33.995Z,100.00
2022-11-12T21:04:54.817Z,100.00
2022-11-12T21:08:15.293Z,100.00
2022-11-12T21:11:35.406Z,100.00
2022-11-12T21:14:55.260Z,100.00
2022-11-12T21:18:15.018Z,100.00
2022-11-12T21:21:34.881Z,100.00
2022-11-12T21:24:54.687Z,100.00
2022-11-12T21:28:14.532Z,100.00
2022-11-12T21:31:34.378Z,100.00
2022-11-12T21:34:55.695Z,100.00
2022-11-12T21:38:15.547Z,100.00
2022-11-12T21:41:35.452Z,100.00
2022-11-12T21:44:55.229Z,100.00
2022-11-12T21:48:15.133Z,100.00
2022-11-12T21:51:34.864Z,100.00
2022-11-12T21:54:54.840Z,100.00
2022-11-12T21:58:14.772Z,100.00
2022-11-12T22:01:34.824Z,100.00
2022-11-12T22:04:54.925Z,100.00
2022-11-12T22:08:14.797Z,100.00
2022-11-12T22:11:34.809Z,100.00
2022-11-12T22:14:55.005Z,100.00
2022-11-12T22:18:14.739Z,100.00
2022-11-12T22:21:39.724Z,100.00
2022-11-12T22:25:01.179Z,100.00
2022-11-12T22:28:26.773Z,100.00
2022-11-12T22:31:47.105Z,100.00
2022-11-12T22:35:07.631Z,100.00
2022-11-12T22:38:31.764Z,100.00
2022-11-12T22:41:51.548Z,100.00
2022-11-12T22:45:12.039Z,100.00
2022-11-12T22:48:32.639Z,100.00
2022-11-12T22:51:52.615Z,100.00
2022-11-12T22:55:12.446Z,100.00
2022-11-12T22:58:52.686Z,100.00
2022-11-12T23:02:12.747Z,100.00
2022-11-12T23:05:32.598Z,100.00
2022-11-12T23:08:52.885Z,100.00
2022-11-12T23:12:12.654Z,100.00
2022-11-12T23:15:32.429Z,100.00
2022-11-12T23:18:52.712Z,100.00
2022-11-12T23:22:12.582Z,100.00
2022-11-12T23:25:32.866Z,100.00
2022-11-12T23:28:53.083Z,100.00
2022-11-12T23:32:12.811Z,100.00
2022-11-12T23:35:32.548Z,100.00
2022-11-12T23:38:52.741Z,100.00
2022-11-12T23:42:12.969Z,100.00
2022-11-12T23:45:36.065Z,100.00
2022-11-12T23:48:55.879Z,100.00
2022-11-12T23:52:16.510Z,100.00
2022-11-12T23:55:38.779Z,100.00
2022-11-12T23:58:59.007Z,100.00
